sensor_id;sensor_type;location;lat;lon;timestamp;pressure;altitude;pressure_sealevel;temperature;humidity
63306;BME280;50735;52.060;1.248;2023-04-01T00:00:59;99282.01;;;8.09;64.27
63306;BME280;50735;52.060;1.248;2023-04-01T00:03:32;99288.59;;;8.01;64.53
63306;BME280;50735;52.060;1.248;2023-04-01T00:06:04;99293.83;;;7.98;64.61
63306;BME280;50735;52.060;1.248;2023-04-01T00:08:36;99295.09;;;7.92;64.81
63306;BME280;50735;52.060;1.248;2023-04-01T00:11:08;99296.51;;;8.09;64.82
63306;BME280;50735;52.060;1.248;2023-04-01T00:13:40;99303.37;;;7.78;64.80
63306;BME280;50735;52.060;1.248;2023-04-01T00:16:13;99302.16;;;7.70;65.17
63306;BME280;50735;52.060;1.248;2023-04-01T00:18:45;99303.82;;;7.69;65.17
63306;BME280;50735;52.060;1.248;2023-04-01T00:21:19;99305.00;;;7.76;64.95
63306;BME280;50735;52.060;1.248;2023-04-01T00:23:52;99308.19;;;7.70;64.80
63306;BME280;50735;52.060;1.248;2023-04-01T00:26:23;99305.36;;;7.78;64.96
63306;BME280;50735;52.060;1.248;2023-04-01T00:28:55;99315.19;;;7.41;65.44
63306;BME280;50735;52.060;1.248;2023-04-01T00:31:27;99320.47;;;7.59;65.62
63306;BME280;50735;52.060;1.248;2023-04-01T00:33:59;99326.22;;;7.40;65.59
63306;BME280;50735;52.060;1.248;2023-04-01T00:36:31;99330.93;;;7.48;65.22
63306;BME280;50735;52.060;1.248;2023-04-01T00:39:02;99336.50;;;7.37;65.56
63306;BME280;50735;52.060;1.248;2023-04-01T00:41:34;99340.88;;;7.34;65.65
63306;BME280;50735;52.060;1.248;2023-04-01T00:44:24;99340.81;;;7.63;65.53
63306;BME280;50735;52.060;1.248;2023-04-01T00:46:56;99346.92;;;7.44;65.25
63306;BME280;50735;52.060;1.248;2023-04-01T00:49:31;99351.42;;;7.37;65.06
63306;BME280;50735;52.060;1.248;2023-04-01T00:52:05;99355.88;;;7.75;65.28
63306;BME280;50735;52.060;1.248;2023-04-01T00:54:40;99359.59;;;7.57;65.16
63306;BME280;50735;52.060;1.248;2023-04-01T00:57:15;99364.32;;;7.58;64.83
63306;BME280;50735;52.060;1.248;2023-04-01T00:59:52;99364.28;;;7.67;64.45
63306;BME280;50735;52.060;1.248;2023-04-01T01:02:26;99366.39;;;7.63;64.65
63306;BME280;50735;52.060;1.248;2023-04-01T01:04:57;99372.39;;;7.66;64.32
63306;BME280;50735;52.060;1.248;2023-04-01T01:07:33;99379.17;;;7.80;64.51
63306;BME280;50735;52.060;1.248;2023-04-01T01:10:12;99379.93;;;7.50;64.57
63306;BME280;50735;52.060;1.248;2023-04-01T01:12:52;99384.15;;;7.85;64.69
63306;BME280;50735;52.060;1.248;2023-04-01T01:15:32;99387.22;;;7.26;65.04
63306;BME280;50735;52.060;1.248;2023-04-01T01:18:09;99387.11;;;7.33;65.27
63306;BME280;50735;52.060;1.248;2023-04-01T01:21:12;99391.95;;;7.52;65.25
63306;BME280;50735;52.060;1.248;2023-04-01T01:24:16;99400.52;;;7.26;65.25
63306;BME280;50735;52.060;1.248;2023-04-01T01:26:59;99406.63;;;7.38;65.11
63306;BME280;50735;52.060;1.248;2023-04-01T01:29:43;99404.98;;;7.64;65.35
63306;BME280;50735;52.060;1.248;2023-04-01T01:32:25;99414.32;;;7.38;65.17
63306;BME280;50735;52.060;1.248;2023-04-01T01:35:14;99419.39;;;7.52;65.29
63306;BME280;50735;52.060;1.248;2023-04-01T01:37:52;99419.22;;;7.38;65.50
63306;BME280;50735;52.060;1.248;2023-04-01T01:40:26;99425.70;;;7.33;65.03
63306;BME280;50735;52.060;1.248;2023-04-01T01:43:03;99427.68;;;7.31;65.18
63306;BME280;50735;52.060;1.248;2023-04-01T01:45:40;99431.93;;;7.50;65.25
63306;BME280;50735;52.060;1.248;2023-04-01T01:48:16;99433.12;;;7.27;64.99
63306;BME280;50735;52.060;1.248;2023-04-01T01:50:48;99438.47;;;7.30;64.98
63306;BME280;50735;52.060;1.248;2023-04-01T01:53:21;99439.06;;;7.37;64.88
63306;BME280;50735;52.060;1.248;2023-04-01T01:55:53;99441.13;;;7.34;64.77
63306;BME280;50735;52.060;1.248;2023-04-01T01:58:27;99445.94;;;7.17;65.10
63306;BME280;50735;52.060;1.248;2023-04-01T02:01:02;99449.68;;;7.36;65.13
63306;BME280;50735;52.060;1.248;2023-04-01T02:03:36;99450.36;;;7.19;64.97
63306;BME280;50735;52.060;1.248;2023-04-01T02:06:11;99459.06;;;7.21;65.13
63306;BME280;50735;52.060;1.248;2023-04-01T02:08:48;99465.71;;;7.24;65.13
63306;BME280;50735;52.060;1.248;2023-04-01T02:11:26;99466.27;;;7.38;65.13
63306;BME280;50735;52.060;1.248;2023-04-01T02:14:03;99471.89;;;6.89;65.14
63306;BME280;50735;52.060;1.248;2023-04-01T02:16:40;99472.08;;;7.50;64.85
63306;BME280;50735;52.060;1.248;2023-04-01T02:19:16;99475.51;;;7.43;64.61
63306;BME280;50735;52.060;1.248;2023-04-01T02:21:50;99480.16;;;7.66;64.55
63306;BME280;50735;52.060;1.248;2023-04-01T02:24:25;99485.07;;;7.52;64.37
63306;BME280;50735;52.060;1.248;2023-04-01T02:26:57;99486.13;;;7.52;63.90
63306;BME280;50735;52.060;1.248;2023-04-01T02:29:29;99496.93;;;7.01;64.42
63306;BME280;50735;52.060;1.248;2023-04-01T02:32:02;99494.28;;;6.92;65.00
63306;BME280;50735;52.060;1.248;2023-04-01T02:34:35;99495.48;;;7.04;64.75
63306;BME280;50735;52.060;1.248;2023-04-01T02:37:08;99497.25;;;7.27;64.66
63306;BME280;50735;52.060;1.248;2023-04-01T02:39:40;99502.55;;;7.50;64.31
63306;BME280;50735;52.060;1.248;2023-04-01T02:42:13;99502.62;;;7.18;64.34
63306;BME280;50735;52.060;1.248;2023-04-01T02:44:45;99506.42;;;7.39;64.48
63306;BME280;50735;52.060;1.248;2023-04-01T02:47:17;99508.07;;;7.32;64.31
63306;BME280;50735;52.060;1.248;2023-04-01T02:49:49;99508.57;;;7.36;64.40
63306;BME280;50735;52.060;1.248;2023-04-01T02:52:21;99511.83;;;7.27;64.57
63306;BME280;50735;52.060;1.248;2023-04-01T02:54:53;99518.63;;;7.38;64.60
63306;BME280;50735;52.060;1.248;2023-04-01T02:57:25;99519.57;;;7.12;64.12
63306;BME280;50735;52.060;1.248;2023-04-01T02:59:56;99522.05;;;7.33;64.53
63306;BME280;50735;52.060;1.248;2023-04-01T03:02:28;99527.81;;;7.51;64.08
63306;BME280;50735;52.060;1.248;2023-04-01T03:05:00;99530.89;;;7.50;63.72
63306;BME280;50735;52.060;1.248;2023-04-01T03:07:32;99537.05;;;7.16;64.04
63306;BME280;50735;52.060;1.248;2023-04-01T03:10:05;99543.04;;;7.40;63.78
63306;BME280;50735;52.060;1.248;2023-04-01T03:12:36;99546.68;;;7.29;63.60
63306;BME280;50735;52.060;1.248;2023-04-01T03:15:10;99555.25;;;7.35;63.78
63306;BME280;50735;52.060;1.248;2023-04-01T03:17:42;99556.78;;;7.32;63.92
63306;BME280;50735;52.060;1.248;2023-04-01T03:20:15;99561.34;;;7.21;64.05
63306;BME280;50735;52.060;1.248;2023-04-01T03:22:46;99568.16;;;6.95;64.26
63306;BME280;50735;52.060;1.248;2023-04-01T03:25:18;99571.22;;;6.79;64.55
63306;BME280;50735;52.060;1.248;2023-04-01T03:27:50;99571.88;;;6.87;64.26
63306;BME280;50735;52.060;1.248;2023-04-01T03:30:22;99577.66;;;6.99;64.16
63306;BME280;50735;52.060;1.248;2023-04-01T03:32:54;99583.22;;;7.11;64.13
63306;BME280;50735;52.060;1.248;2023-04-01T03:35:26;99583.41;;;7.07;63.93
63306;BME280;50735;52.060;1.248;2023-04-01T03:37:58;99588.75;;;6.67;64.06
63306;BME280;50735;52.060;1.248;2023-04-01T03:40:30;99587.72;;;6.95;64.13
63306;BME280;50735;52.060;1.248;2023-04-01T03:43:02;99591.12;;;6.91;64.10
63306;BME280;50735;52.060;1.248;2023-04-01T03:45:34;99591.57;;;6.88;64.26
63306;BME280;50735;52.060;1.248;2023-04-01T03:48:06;99596.07;;;6.89;64.05
63306;BME280;50735;52.060;1.248;2023-04-01T03:50:38;99600.35;;;7.03;63.83
63306;BME280;50735;52.060;1.248;2023-04-01T03:53:10;99601.34;;;7.08;63.94
63306;BME280;50735;52.060;1.248;2023-04-01T03:55:42;99604.46;;;7.20;63.68
63306;BME280;50735;52.060;1.248;2023-04-01T03:58:14;99609.28;;;7.18;63.45
63306;BME280;50735;52.060;1.248;2023-04-01T04:00:46;99612.20;;;6.87;64.08
63306;BME280;50735;52.060;1.248;2023-04-01T04:03:18;99618.62;;;7.04;64.03
63306;BME280;50735;52.060;1.248;2023-04-01T04:05:50;99619.22;;;6.99;64.05
63306;BME280;50735;52.060;1.248;2023-04-01T04:08:21;99623.66;;;6.92;64.31
63306;BME280;50735;52.060;1.248;2023-04-01T04:10:55;99627.18;;;7.02;64.21
63306;BME280;50735;52.060;1.248;2023-04-01T04:13:27;99628.90;;;6.95;63.91
63306;BME280;50735;52.060;1.248;2023-04-01T04:15:59;99632.09;;;7.10;64.00
63306;BME280;50735;52.060;1.248;2023-04-01T04:18:31;99637.45;;;7.17;63.82
63306;BME280;50735;52.060;1.248;2023-04-01T04:21:03;99638.28;;;7.23;63.38
63306;BME280;50735;52.060;1.248;2023-04-01T04:23:35;99639.87;;;7.17;63.28
63306;BME280;50735;52.060;1.248;2023-04-01T04:26:09;99642.11;;;7.39;63.22
63306;BME280;50735;52.060;1.248;2023-04-01T04:28:42;99650.08;;;7.16;63.14
63306;BME280;50735;52.060;1.248;2023-04-01T04:31:18;99652.85;;;7.11;62.70
63306;BME280;50735;52.060;1.248;2023-04-01T04:33:51;99651.63;;;7.33;63.01
63306;BME280;50735;52.060;1.248;2023-04-01T04:36:23;99655.86;;;7.41;62.71
63306;BME280;50735;52.060;1.248;2023-04-01T04:38:55;99657.59;;;7.31;62.92
63306;BME280;50735;52.060;1.248;2023-04-01T04:41:27;99660.27;;;7.29;62.86
63306;BME280;50735;52.060;1.248;2023-04-01T04:43:59;99662.51;;;7.31;62.95
63306;BME280;50735;52.060;1.248;2023-04-01T04:46:31;99668.01;;;7.27;63.00
63306;BME280;50735;52.060;1.248;2023-04-01T04:49:03;99670.76;;;7.15;62.88
63306;BME280;50735;52.060;1.248;2023-04-01T04:51:34;99669.84;;;7.09;62.77
63306;BME280;50735;52.060;1.248;2023-04-01T04:54:08;99674.70;;;7.37;62.82
63306;BME280;50735;52.060;1.248;2023-04-01T04:56:40;99677.66;;;7.21;62.74
63306;BME280;50735;52.060;1.248;2023-04-01T04:59:12;99678.07;;;6.95;62.35
63306;BME280;50735;52.060;1.248;2023-04-01T05:01:43;99688.87;;;7.02;62.78
63306;BME280;50735;52.060;1.248;2023-04-01T05:04:15;99690.87;;;7.38;62.67
63306;BME280;50735;52.060;1.248;2023-04-01T05:06:47;99699.19;;;7.20;62.53
63306;BME280;50735;52.060;1.248;2023-04-01T05:09:19;99706.84;;;7.12;62.89
63306;BME280;50735;52.060;1.248;2023-04-01T05:11:51;99710.26;;;7.06;62.87
63306;BME280;50735;52.060;1.248;2023-04-01T05:14:23;99711.76;;;6.99;62.91
63306;BME280;50735;52.060;1.248;2023-04-01T05:16:55;99712.82;;;7.01;63.11
63306;BME280;50735;52.060;1.248;2023-04-01T05:19:26;99718.50;;;7.28;62.87
63306;BME280;50735;52.060;1.248;2023-04-01T05:21:58;99719.11;;;7.19;62.80
63306;BME280;50735;52.060;1.248;2023-04-01T05:24:30;99724.56;;;7.08;62.44
63306;BME280;50735;52.060;1.248;2023-04-01T05:27:02;99727.32;;;7.06;62.53
63306;BME280;50735;52.060;1.248;2023-04-01T05:29:34;99728.92;;;7.38;62.60
63306;BME280;50735;52.060;1.248;2023-04-01T05:32:06;99732.36;;;7.46;62.43
63306;BME280;50735;52.060;1.248;2023-04-01T05:34:38;99734.26;;;7.42;62.82
63306;BME280;50735;52.060;1.248;2023-04-01T05:37:09;99737.15;;;7.38;62.81
63306;BME280;50735;52.060;1.248;2023-04-01T05:39:41;99739.67;;;7.40;63.07
63306;BME280;50735;52.060;1.248;2023-04-01T05:42:13;99739.61;;;7.40;62.99
63306;BME280;50735;52.060;1.248;2023-04-01T05:44:45;99743.01;;;7.40;63.08
63306;BME280;50735;52.060;1.248;2023-04-01T05:47:17;99746.85;;;7.19;63.01
63306;BME280;50735;52.060;1.248;2023-04-01T05:49:49;99752.76;;;7.48;62.66
63306;BME280;50735;52.060;1.248;2023-04-01T05:52:21;99752.66;;;7.20;62.88
63306;BME280;50735;52.060;1.248;2023-04-01T05:54:52;99757.69;;;6.64;63.32
63306;BME280;50735;52.060;1.248;2023-04-01T05:57:24;99759.41;;;7.20;63.06
63306;BME280;50735;52.060;1.248;2023-04-01T05:59:56;99765.82;;;7.11;63.11
63306;BME280;50735;52.060;1.248;2023-04-01T06:02:28;99770.62;;;7.31;62.94
63306;BME280;50735;52.060;1.248;2023-04-01T06:05:03;99772.80;;;7.36;62.69
63306;BME280;50735;52.060;1.248;2023-04-01T06:07:42;99773.68;;;7.26;62.51
63306;BME280;50735;52.060;1.248;2023-04-01T06:10:16;99776.90;;;7.30;62.64
63306;BME280;50735;52.060;1.248;2023-04-01T06:12:55;99782.29;;;7.41;62.31
63306;BME280;50735;52.060;1.248;2023-04-01T06:15:36;99781.22;;;7.07;62.88
63306;BME280;50735;52.060;1.248;2023-04-01T06:18:28;99785.67;;;7.25;62.65
63306;BME280;50735;52.060;1.248;2023-04-01T06:21:10;99786.92;;;7.42;62.75
63306;BME280;50735;52.060;1.248;2023-04-01T06:23:55;99792.65;;;7.43;62.67
63306;BME280;50735;52.060;1.248;2023-04-01T06:26:36;99791.94;;;7.25;62.41
63306;BME280;50735;52.060;1.248;2023-04-01T06:29:52;99799.35;;;7.15;62.62
63306;BME280;50735;52.060;1.248;2023-04-01T06:32:37;99802.05;;;7.39;62.93
63306;BME280;50735;52.060;1.248;2023-04-01T06:35:20;99804.62;;;7.38;62.88
63306;BME280;50735;52.060;1.248;2023-04-01T06:38:11;99806.95;;;7.26;63.11
63306;BME280;50735;52.060;1.248;2023-04-01T06:41:02;99812.64;;;7.36;62.72
63306;BME280;50735;52.060;1.248;2023-04-01T06:43:46;99818.40;;;7.43;62.94
63306;BME280;50735;52.060;1.248;2023-04-01T06:46:31;99817.42;;;7.05;62.99
63306;BME280;50735;52.060;1.248;2023-04-01T06:49:22;99817.06;;;7.53;62.91
63306;BME280;50735;52.060;1.248;2023-04-01T06:52:02;99823.15;;;7.34;63.88
63306;BME280;50735;52.060;1.248;2023-04-01T06:54:42;99825.52;;;7.48;62.95
63306;BME280;50735;52.060;1.248;2023-04-01T06:57:21;99829.41;;;7.47;62.58
63306;BME280;50735;52.060;1.248;2023-04-01T06:59:57;99829.15;;;7.36;63.03
63306;BME280;50735;52.060;1.248;2023-04-01T07:02:33;99832.27;;;7.15;62.69
63306;BME280;50735;52.060;1.248;2023-04-01T07:05:08;99835.21;;;7.50;62.60
63306;BME280;50735;52.060;1.248;2023-04-01T07:07:44;99839.14;;;7.31;62.76
63306;BME280;50735;52.060;1.248;2023-04-01T07:10:23;99841.99;;;7.58;62.74
63306;BME280;50735;52.060;1.248;2023-04-01T07:12:58;99842.81;;;7.02;63.47
63306;BME280;50735;52.060;1.248;2023-04-01T07:15:36;99848.65;;;7.37;63.22
63306;BME280;50735;52.060;1.248;2023-04-01T07:18:14;99848.74;;;6.72;63.39
63306;BME280;50735;52.060;1.248;2023-04-01T07:20:47;99853.01;;;7.18;63.34
63306;BME280;50735;52.060;1.248;2023-04-01T07:23:23;99851.49;;;6.91;63.14
63306;BME280;50735;52.060;1.248;2023-04-01T07:25:59;99852.91;;;7.28;63.14
63306;BME280;50735;52.060;1.248;2023-04-01T07:28:32;99853.51;;;7.18;63.40
63306;BME280;50735;52.060;1.248;2023-04-01T07:31:14;99857.55;;;7.43;63.15
63306;BME280;50735;52.060;1.248;2023-04-01T07:33:56;99862.02;;;7.39;63.10
63306;BME280;50735;52.060;1.248;2023-04-01T07:36:33;99865.19;;;7.40;62.97
63306;BME280;50735;52.060;1.248;2023-04-01T07:39:17;99869.04;;;7.50;62.48
63306;BME280;50735;52.060;1.248;2023-04-01T07:41:59;99870.55;;;7.52;62.55
63306;BME280;50735;52.060;1.248;2023-04-01T07:44:39;99874.39;;;7.37;61.95
63306;BME280;50735;52.060;1.248;2023-04-01T07:47:28;99877.68;;;7.59;61.79
63306;BME280;50735;52.060;1.248;2023-04-01T07:50:10;99880.72;;;7.53;61.75
63306;BME280;50735;52.060;1.248;2023-04-01T07:52:51;99888.99;;;7.57;61.46
63306;BME280;50735;52.060;1.248;2023-04-01T07:55:30;99891.21;;;7.40;61.86
63306;BME280;50735;52.060;1.248;2023-04-01T07:58:11;99895.97;;;7.51;65.88
63306;BME280;50735;52.060;1.248;2023-04-01T08:00:51;99899.82;;;7.93;61.57
63306;BME280;50735;52.060;1.248;2023-04-01T08:03:36;99904.17;;;7.33;61.64
63306;BME280;50735;52.060;1.248;2023-04-01T08:06:14;99909.39;;;7.45;61.45
63306;BME280;50735;52.060;1.248;2023-04-01T08:08:59;99907.77;;;7.71;67.96
63306;BME280;50735;52.060;1.248;2023-04-01T08:11:44;99909.04;;;8.23;62.06
63306;BME280;50735;52.060;1.248;2023-04-01T08:14:22;99910.44;;;8.47;61.09
63306;BME280;50735;52.060;1.248;2023-04-01T08:17:03;99912.94;;;8.59;60.98
63306;BME280;50735;52.060;1.248;2023-04-01T08:19:49;99920.39;;;7.49;61.67
63306;BME280;50735;52.060;1.248;2023-04-01T08:22:27;99923.15;;;7.28;62.86
63306;BME280;50735;52.060;1.248;2023-04-01T08:25:04;99929.13;;;7.52;61.95
63306;BME280;50735;52.060;1.248;2023-04-01T08:27:38;99934.60;;;7.68;61.83
63306;BME280;50735;52.060;1.248;2023-04-01T08:30:18;99931.12;;;7.55;61.71
63306;BME280;50735;52.060;1.248;2023-04-01T08:32:54;99939.88;;;7.03;62.78
63306;BME280;50735;52.060;1.248;2023-04-01T08:35:30;99938.34;;;7.16;62.85
63306;BME280;50735;52.060;1.248;2023-04-01T08:38:09;99934.80;;;7.04;62.92
63306;BME280;50735;52.060;1.248;2023-04-01T08:40:59;99946.29;;;7.15;62.91
63306;BME280;50735;52.060;1.248;2023-04-01T08:44:52;99953.84;;;6.85;64.23
63306;BME280;50735;52.060;1.248;2023-04-01T08:47:42;99960.82;;;7.22;62.52
63306;BME280;50735;52.060;1.248;2023-04-01T08:50:27;99957.34;;;7.55;61.87
63306;BME280;50735;52.060;1.248;2023-04-01T08:53:12;99961.37;;;7.62;62.21
63306;BME280;50735;52.060;1.248;2023-04-01T08:56:00;99969.20;;;6.97;62.64
63306;BME280;50735;52.060;1.248;2023-04-01T08:58:59;99974.70;;;7.50;61.71
63306;BME280;50735;52.060;1.248;2023-04-01T09:01:52;99979.69;;;7.97;61.08
63306;BME280;50735;52.060;1.248;2023-04-01T09:04:44;99984.62;;;7.83;61.00
63306;BME280;50735;52.060;1.248;2023-04-01T09:07:32;99978.49;;;6.98;62.94
63306;BME280;50735;52.060;1.248;2023-04-01T09:10:21;99985.08;;;7.42;62.19
63306;BME280;50735;52.060;1.248;2023-04-01T09:13:04;99989.10;;;7.18;63.42
63306;BME280;50735;52.060;1.248;2023-04-01T09:15:54;99999.71;;;6.43;64.94
63306;BME280;50735;52.060;1.248;2023-04-01T09:18:54;99998.69;;;6.97;63.89
63306;BME280;50735;52.060;1.248;2023-04-01T09:21:40;100000.63;;;7.14;63.35
63306;BME280;50735;52.060;1.248;2023-04-01T09:24:26;100003.44;;;7.16;63.02
63306;BME280;50735;52.060;1.248;2023-04-01T09:27:06;100003.04;;;7.34;62.47
63306;BME280;50735;52.060;1.248;2023-04-01T09:30:04;100004.81;;;7.49;62.38
63306;BME280;50735;52.060;1.248;2023-04-01T09:32:51;100004.91;;;7.24;62.28
63306;BME280;50735;52.060;1.248;2023-04-01T09:35:38;100014.77;;;7.64;62.18
63306;BME280;50735;52.060;1.248;2023-04-01T09:38:22;100014.01;;;7.48;61.93
63306;BME280;50735;52.060;1.248;2023-04-01T09:40:56;100015.21;;;7.40;62.83
63306;BME280;50735;52.060;1.248;2023-04-01T09:43:39;100014.83;;;7.66;62.78
63306;BME280;50735;52.060;1.248;2023-04-01T09:46:24;100021.79;;;7.58;62.64
63306;BME280;50735;52.060;1.248;2023-04-01T09:49:23;100026.86;;;7.49;62.98
63306;BME280;50735;52.060;1.248;2023-04-01T09:52:09;100026.41;;;7.48;62.93
63306;BME280;50735;52.060;1.248;2023-04-01T09:54:54;100029.05;;;7.48;62.72
63306;BME280;50735;52.060;1.248;2023-04-01T09:57:48;100039.86;;;7.00;65.01
63306;BME280;50735;52.060;1.248;2023-04-01T10:01:02;100046.94;;;6.59;65.77
63306;BME280;50735;52.060;1.248;2023-04-01T10:06:49;100051.04;;;7.54;63.85
63306;BME280;50735;52.060;1.248;2023-04-01T10:09:47;100055.56;;;7.46;63.97
63306;BME280;50735;52.060;1.248;2023-04-01T10:17:22;100071.54;;;7.63;63.32
63306;BME280;50735;52.060;1.248;2023-04-01T10:20:09;100068.81;;;7.02;64.68
63306;BME280;50735;52.060;1.248;2023-04-01T10:23:25;100072.77;;;6.82;64.60
63306;BME280;50735;52.060;1.248;2023-04-01T10:28:41;100068.91;;;7.26;64.10
63306;BME280;50735;52.060;1.248;2023-04-01T10:31:41;100081.31;;;7.05;64.10
63306;BME280;50735;52.060;1.248;2023-04-01T10:34:48;100077.94;;;7.27;64.53
63306;BME280;50735;52.060;1.248;2023-04-01T10:38:18;100084.79;;;7.25;63.89
63306;BME280;50735;52.060;1.248;2023-04-01T10:41:12;100086.57;;;6.88;64.30
63306;BME280;50735;52.060;1.248;2023-04-01T10:44:08;100092.41;;;6.64;64.43
63306;BME280;50735;52.060;1.248;2023-04-01T10:47:03;100100.03;;;6.93;64.66
63306;BME280;50735;52.060;1.248;2023-04-01T10:49:49;100104.11;;;6.96;64.34
63306;BME280;50735;52.060;1.248;2023-04-01T10:52:52;100099.24;;;7.26;63.44
63306;BME280;50735;52.060;1.248;2023-04-01T10:55:37;100104.22;;;7.26;62.11
63306;BME280;50735;52.060;1.248;2023-04-01T10:58:30;100112.38;;;7.57;62.22
63306;BME280;50735;52.060;1.248;2023-04-01T11:01:34;100115.86;;;7.69;61.77
63306;BME280;50735;52.060;1.248;2023-04-01T11:04:37;100116.76;;;7.47;62.54
63306;BME280;50735;52.060;1.248;2023-04-01T11:07:48;100120.68;;;7.64;62.06
63306;BME280;50735;52.060;1.248;2023-04-01T11:10:57;100122.72;;;7.25;62.26
63306;BME280;50735;52.060;1.248;2023-04-01T11:14:15;100123.78;;;7.22;63.14
63306;BME280;50735;52.060;1.248;2023-04-01T11:17:15;100131.02;;;7.43;62.35
63306;BME280;50735;52.060;1.248;2023-04-01T11:22:30;100137.67;;;7.20;63.36
63306;BME280;50735;52.060;1.248;2023-04-01T11:25:18;100148.65;;;6.87;64.65
63306;BME280;50735;52.060;1.248;2023-04-01T11:28:07;100151.19;;;7.23;63.02
63306;BME280;50735;52.060;1.248;2023-04-01T11:30:56;100155.27;;;7.36;63.55
63306;BME280;50735;52.060;1.248;2023-04-01T11:33:35;100158.45;;;6.20;65.86
63306;BME280;50735;52.060;1.248;2023-04-01T11:36:20;100167.15;;;6.42;66.28
63306;BME280;50735;52.060;1.248;2023-04-01T11:39:03;100165.81;;;6.53;65.34
63306;BME280;50735;52.060;1.248;2023-04-01T11:41:41;100167.10;;;6.16;65.68
63306;BME280;50735;52.060;1.248;2023-04-01T11:44:20;100172.52;;;6.27;66.05
63306;BME280;50735;52.060;1.248;2023-04-01T11:47:05;100178.62;;;6.44;65.09
63306;BME280;50735;52.060;1.248;2023-04-01T11:49:49;100185.74;;;6.74;64.84
63306;BME280;50735;52.060;1.248;2023-04-01T11:52:35;100188.73;;;6.87;64.48
63306;BME280;50735;52.060;1.248;2023-04-01T11:55:24;100195.91;;;6.50;65.18
63306;BME280;50735;52.060;1.248;2023-04-01T11:58:12;100198.79;;;6.10;65.47
63306;BME280;50735;52.060;1.248;2023-04-01T12:01:01;100199.18;;;5.86;65.85
63306;BME280;50735;52.060;1.248;2023-04-01T12:03:51;100206.17;;;6.12;65.23
63306;BME280;50735;52.060;1.248;2023-04-01T12:06:35;100210.73;;;5.99;65.51
63306;BME280;50735;52.060;1.248;2023-04-01T12:09:14;100209.06;;;6.72;63.67
63306;BME280;50735;52.060;1.248;2023-04-01T12:11:54;100217.27;;;6.85;63.99
63306;BME280;50735;52.060;1.248;2023-04-01T12:14:37;100223.97;;;7.14;63.05
63306;BME280;50735;52.060;1.248;2023-04-01T12:17:24;100226.73;;;7.39;62.64
63306;BME280;50735;52.060;1.248;2023-04-01T12:20:05;100233.07;;;6.60;64.25
63306;BME280;50735;52.060;1.248;2023-04-01T12:22:51;100235.79;;;6.72;63.81
63306;BME280;50735;52.060;1.248;2023-04-01T12:25:38;100242.31;;;6.74;63.14
63306;BME280;50735;52.060;1.248;2023-04-01T12:28:24;100245.64;;;6.65;63.66
63306;BME280;50735;52.060;1.248;2023-04-01T12:31:09;100248.38;;;6.30;64.83
63306;BME280;50735;52.060;1.248;2023-04-01T12:33:58;100251.85;;;6.32;65.38
63306;BME280;50735;52.060;1.248;2023-04-01T12:36:40;100255.31;;;6.31;65.96
63306;BME280;50735;52.060;1.248;2023-04-01T12:39:28;100258.29;;;5.77;66.81
63306;BME280;50735;52.060;1.248;2023-04-01T12:42:11;100266.79;;;5.36;67.94
63306;BME280;50735;52.060;1.248;2023-04-01T12:44:57;100266.64;;;6.11;66.63
63306;BME280;50735;52.060;1.248;2023-04-01T12:47:50;100268.51;;;5.61;67.49
63306;BME280;50735;52.060;1.248;2023-04-01T12:50:34;100274.32;;;5.84;67.41
63306;BME280;50735;52.060;1.248;2023-04-01T12:53:25;100273.34;;;6.43;66.07
63306;BME280;50735;52.060;1.248;2023-04-01T12:56:03;100279.06;;;6.76;66.27
63306;BME280;50735;52.060;1.248;2023-04-01T12:58:59;100287.64;;;6.45;66.59
63306;BME280;50735;52.060;1.248;2023-04-01T13:01:56;100287.05;;;6.77;65.64
63306;BME280;50735;52.060;1.248;2023-04-01T13:04:49;100294.45;;;6.62;65.76
63306;BME280;50735;52.060;1.248;2023-04-01T13:07:50;100294.10;;;6.24;66.19
63306;BME280;50735;52.060;1.248;2023-04-01T13:10:32;100300.93;;;6.07;66.18
63306;BME280;50735;52.060;1.248;2023-04-01T13:13:35;100298.19;;;6.78;64.91
63306;BME280;50735;52.060;1.248;2023-04-01T13:16:14;100303.38;;;6.98;64.56
63306;BME280;50735;52.060;1.248;2023-04-01T13:18:56;100311.67;;;6.16;66.20
63306;BME280;50735;52.060;1.248;2023-04-01T13:21:38;100308.91;;;6.65;63.97
63306;BME280;50735;52.060;1.248;2023-04-01T13:24:25;100316.95;;;6.73;64.28
63306;BME280;50735;52.060;1.248;2023-04-01T13:27:06;100322.12;;;6.17;65.38
63306;BME280;50735;52.060;1.248;2023-04-01T13:29:44;100334.94;;;5.65;66.36
63306;BME280;50735;52.060;1.248;2023-04-01T13:32:26;100332.12;;;6.52;64.04
63306;BME280;50735;52.060;1.248;2023-04-01T13:35:11;100336.16;;;6.44;63.85
63306;BME280;50735;52.060;1.248;2023-04-01T13:37:59;100339.09;;;6.09;65.36
63306;BME280;50735;52.060;1.248;2023-04-01T13:40:41;100348.22;;;6.24;65.43
63306;BME280;50735;52.060;1.248;2023-04-01T13:43:19;100351.33;;;6.66;64.75
63306;BME280;50735;52.060;1.248;2023-04-01T13:46:11;100356.34;;;6.49;64.62
63306;BME280;50735;52.060;1.248;2023-04-01T13:49:03;100362.69;;;5.81;67.00
63306;BME280;50735;52.060;1.248;2023-04-01T13:51:52;100353.26;;;5.99;65.97
63306;BME280;50735;52.060;1.248;2023-04-01T13:54:41;100362.07;;;6.13;66.79
63306;BME280;50735;52.060;1.248;2023-04-01T13:57:30;100366.35;;;6.66;65.54
63306;BME280;50735;52.060;1.248;2023-04-01T14:00:22;100375.03;;;6.72;65.54
63306;BME280;50735;52.060;1.248;2023-04-01T14:03:13;100372.92;;;6.74;64.11
63306;BME280;50735;52.060;1.248;2023-04-01T14:06:00;100375.20;;;6.76;63.86
63306;BME280;50735;52.060;1.248;2023-04-01T14:08:53;100384.48;;;6.77;63.38
63306;BME280;50735;52.060;1.248;2023-04-01T14:11:35;100381.30;;;7.10;62.57
63306;BME280;50735;52.060;1.248;2023-04-01T14:14:20;100389.86;;;7.09;62.61
63306;BME280;50735;52.060;1.248;2023-04-01T14:17:03;100387.59;;;6.40;64.25
63306;BME280;50735;52.060;1.248;2023-04-01T14:19:56;100396.97;;;6.13;65.79
63306;BME280;50735;52.060;1.248;2023-04-01T14:22:38;100400.33;;;7.28;63.77
63306;BME280;50735;52.060;1.248;2023-04-01T14:25:34;100400.23;;;7.05;63.50
63306;BME280;50735;52.060;1.248;2023-04-01T14:28:18;100409.15;;;6.73;64.57
63306;BME280;50735;52.060;1.248;2023-04-01T14:31:12;100412.66;;;6.67;65.39
63306;BME280;50735;52.060;1.248;2023-04-01T14:33:54;100418.30;;;6.14;66.56